createdAt,value
2023-04-20T00:01:28.905Z,10.58
2023-04-20T00:03:56.199Z,10.50
2023-04-20T00:06:25.669Z,10.56
2023-04-20T00:08:52.570Z,10.55
2023-04-20T00:11:19.620Z,10.42
2023-04-20T00:13:46.601Z,10.58
2023-04-20T00:16:13.681Z,10.61
2023-04-20T00:18:40.822Z,10.40
2023-04-20T00:21:07.908Z,10.37
2023-04-20T00:23:34.967Z,10.28
2023-04-20T00:26:02.035Z,10.33
2023-04-20T00:28:29.964Z,10.27
2023-04-20T00:30:58.135Z,10.23
2023-04-20T00:33:26.308Z,10.17
2023-04-20T00:35:54.009Z,10.02
2023-04-20T00:38:24.097Z,10.17
2023-04-20T00:40:54.148Z,9.74
2023-04-20T00:43:22.169Z,10.19
2023-04-20T00:45:54.871Z,10.14
2023-04-20T00:48:22.476Z,10.23
2023-04-20T00:50:50.751Z,10.14
2023-04-20T00:53:19.060Z,10.13
2023-04-20T00:55:46.498Z,9.69
2023-04-20T00:58:13.752Z,10.30
2023-04-20T01:00:40.775Z,10.30
2023-04-20T01:03:08.907Z,10.11
2023-04-20T01:05:36.287Z,9.94
2023-04-20T01:08:03.499Z,9.98
2023-04-20T01:10:31.007Z,10.01
2023-04-20T01:12:58.516Z,9.92
2023-04-20T01:15:26.232Z,9.90
2023-04-20T01:17:53.743Z,9.97
2023-04-20T01:20:23.652Z,10.03
2023-04-20T01:22:53.774Z,9.88
2023-04-20T01:25:21.122Z,9.86
2023-04-20T01:27:48.704Z,9.85
2023-04-20T01:30:17.329Z,9.92
2023-04-20T01:32:44.835Z,9.93
2023-04-20T01:35:12.104Z,9.94
2023-04-20T01:37:40.371Z,9.95
2023-04-20T01:40:12.081Z,10.08
2023-04-20T01:42:39.582Z,10.10
2023-04-20T01:45:07.446Z,10.06
2023-04-20T01:47:37.418Z,9.85
2023-04-20T01:50:05.086Z,10.01
2023-04-20T01:52:33.280Z,10.03
2023-04-20T01:55:00.472Z,10.04
2023-04-20T01:57:27.836Z,9.96
2023-04-20T01:59:55.188Z,9.87
2023-04-20T02:02:22.242Z,9.81
2023-04-20T02:04:49.422Z,9.75
2023-04-20T02:07:16.735Z,9.71
2023-04-20T02:09:43.837Z,9.73
2023-04-20T02:12:11.034Z,9.60
2023-04-20T02:14:41.144Z,9.56
2023-04-20T02:17:10.924Z,9.49
2023-04-20T02:19:38.232Z,9.50
2023-04-20T02:22:05.636Z,9.62
2023-04-20T02:24:32.772Z,9.61
2023-04-20T02:26:59.734Z,9.61
2023-04-20T02:29:27.094Z,9.70
2023-04-20T02:31:54.010Z,9.68
2023-04-20T02:34:22.307Z,9.74
2023-04-20T02:36:49.364Z,9.74
2023-04-20T02:39:16.758Z,9.68
2023-04-20T02:41:44.100Z,9.71
2023-04-20T02:44:11.988Z,9.73
2023-04-20T02:46:39.489Z,9.75
2023-04-20T02:49:07.259Z,9.77
2023-04-20T02:51:38.650Z,9.62
2023-04-20T02:54:06.056Z,9.75
2023-04-20T02:56:32.956Z,9.70
2023-04-20T02:59:05.081Z,9.70
2023-04-20T03:02:01.847Z,9.73
2023-04-20T03:04:31.029Z,9.81
2023-04-20T03:07:18.511Z,9.76
2023-04-20T03:09:47.166Z,9.84
2023-04-20T03:12:18.356Z,9.86
2023-04-20T03:14:58.628Z,9.79
2023-04-20T03:17:38.733Z,9.80
2023-04-20T03:20:09.252Z,9.75
2023-04-20T03:22:36.995Z,9.79
2023-04-20T03:25:04.160Z,9.81
2023-04-20T03:27:47.865Z,9.84
2023-04-20T03:30:16.013Z,9.83
2023-04-20T03:32:45.589Z,9.86
2023-04-20T03:35:12.972Z,9.87
2023-04-20T03:37:41.120Z,9.79
2023-04-20T03:40:09.460Z,9.78
2023-04-20T03:42:37.647Z,9.91
2023-04-20T03:45:06.744Z,9.85
2023-04-20T03:47:33.882Z,9.89
2023-04-20T03:50:01.418Z,9.98
2023-04-20T03:52:32.478Z,10.01
2023-04-20T03:55:03.851Z,10.02
2023-04-20T03:57:33.458Z,10.08
2023-04-20T04:00:03.414Z,10.02
2023-04-20T04:02:46.150Z,10.03
2023-04-20T04:05:17.010Z,10.07
2023-04-20T04:07:44.510Z,10.16
2023-04-20T04:10:13.234Z,10.24
2023-04-20T04:12:40.614Z,10.28
2023-04-20T04:15:08.397Z,10.39
2023-04-20T04:17:41.570Z,10.39
2023-04-20T04:20:09.183Z,10.44
2023-04-20T04:22:37.069Z,10.45
2023-04-20T04:25:23.321Z,10.43
2023-04-20T04:27:51.226Z,10.39
2023-04-20T04:30:20.031Z,10.10
2023-04-20T04:32:49.115Z,10.11
2023-04-20T04:35:16.824Z,10.27
2023-04-20T04:37:43.833Z,10.28
2023-04-20T04:40:11.323Z,10.36
2023-04-20T04:42:39.165Z,10.33
2023-04-20T04:45:10.654Z,10.35
2023-04-20T04:47:42.317Z,10.45
2023-04-20T04:50:10.905Z,10.37
2023-04-20T04:52:37.812Z,10.49
2023-04-20T04:55:08.495Z,10.66
2023-04-20T04:57:36.513Z,10.76
2023-04-20T05:00:07.958Z,10.77
2023-04-20T05:02:35.771Z,10.75
2023-04-20T05:05:02.835Z,10.63
2023-04-20T05:07:31.238Z,10.56
2023-04-20T05:09:58.190Z,10.63
2023-04-20T05:12:25.868Z,10.46
2023-04-20T05:14:53.276Z,10.50
2023-04-20T05:17:20.531Z,10.39
2023-04-20T05:19:47.504Z,10.48
2023-04-20T05:22:14.482Z,10.53
2023-04-20T05:24:42.614Z,10.23
2023-04-20T05:27:11.296Z,10.81
2023-04-20T05:29:38.899Z,10.79
2023-04-20T05:32:06.133Z,10.84
2023-04-20T05:34:33.974Z,10.92
2023-04-20T05:37:01.254Z,10.93
2023-04-20T05:39:28.393Z,10.82
2023-04-20T05:41:55.406Z,10.90
2023-04-20T05:44:22.444Z,10.93
2023-04-20T05:46:50.415Z,10.91
2023-04-20T05:49:17.570Z,10.84
2023-04-20T05:51:44.941Z,10.80
2023-04-20T05:54:12.677Z,10.78
2023-04-20T05:56:39.590Z,10.80
2023-04-20T05:59:07.113Z,10.80
2023-04-20T06:01:34.471Z,10.82
2023-04-20T06:04:01.702Z,10.97
2023-04-20T06:06:28.915Z,11.02
2023-04-20T06:08:56.182Z,10.97
2023-04-20T06:11:23.214Z,11.23
2023-04-20T06:13:55.821Z,11.14
2023-04-20T06:16:23.401Z,10.91
2023-04-20T06:18:50.436Z,11.08
2023-04-20T06:21:17.675Z,11.24
2023-04-20T06:23:44.727Z,11.36
2023-04-20T06:26:30.824Z,11.45
2023-04-20T06:28:57.872Z,11.18
2023-04-20T06:31:24.866Z,11.30
2023-04-20T06:33:52.073Z,11.31
2023-04-20T06:36:18.946Z,11.27
2023-04-20T06:38:45.996Z,11.27
2023-04-20T06:41:13.167Z,11.34
2023-04-20T06:43:42.059Z,11.31
2023-04-20T06:46:09.249Z,11.44
2023-04-20T06:48:36.141Z,11.49
2023-04-20T06:51:03.326Z,11.50
2023-04-20T06:53:30.451Z,11.56
2023-04-20T06:55:57.576Z,11.38
2023-04-20T06:58:24.471Z,11.26
2023-04-20T07:00:51.536Z,11.23
2023-04-20T07:03:19.401Z,11.33
2023-04-20T07:05:47.005Z,11.44
2023-04-20T07:08:16.057Z,11.45
2023-04-20T07:10:43.364Z,11.61
2023-04-20T07:13:10.607Z,11.74
2023-04-20T07:15:37.696Z,11.78
2023-04-20T07:18:04.839Z,12.25
2023-04-20T07:20:32.182Z,12.46
2023-04-20T07:22:59.114Z,12.35
2023-04-20T07:25:26.344Z,12.57
2023-04-20T07:27:53.374Z,12.83
2023-04-20T07:30:20.477Z,12.62
2023-04-20T07:32:47.638Z,12.81
2023-04-20T07:35:14.920Z,13.12
2023-04-20T07:37:41.971Z,13.32
2023-04-20T07:40:09.627Z,13.42
2023-04-20T07:42:37.739Z,13.57
2023-04-20T07:45:06.779Z,13.54
2023-04-20T07:47:35.377Z,13.50
2023-04-20T07:50:06.362Z,13.40
2023-04-20T07:52:34.555Z,13.90
2023-04-20T07:55:02.536Z,14.10
2023-04-20T07:57:34.846Z,14.09
2023-04-20T08:00:01.916Z,14.45
2023-04-20T08:02:41.088Z,14.62
2023-04-20T08:05:10.441Z,14.74
2023-04-20T08:07:37.967Z,14.55
2023-04-20T08:10:06.483Z,14.87
2023-04-20T08:12:35.632Z,14.42
2023-04-20T08:15:06.371Z,14.24
2023-04-20T08:17:34.493Z,14.20
2023-04-20T08:20:02.307Z,13.73
2023-04-20T08:22:33.730Z,13.56
2023-04-20T08:25:01.393Z,13.42
2023-04-20T08:27:33.967Z,13.31
2023-04-20T08:30:01.363Z,13.50
2023-04-20T08:32:33.005Z,13.84
2023-04-20T08:34:59.990Z,14.12
2023-04-20T08:37:27.209Z,12.69
2023-04-20T08:39:55.339Z,14.74
2023-04-20T08:42:24.931Z,14.65
2023-04-20T08:44:52.681Z,14.61
2023-04-20T08:47:32.255Z,14.37
2023-04-20T08:50:04.679Z,14.09
2023-04-20T08:52:33.273Z,13.69
2023-04-20T08:55:00.712Z,13.47
2023-04-20T08:57:33.993Z,13.57
2023-04-20T09:00:08.383Z,13.76
2023-04-20T09:02:36.714Z,13.92
2023-04-20T09:05:05.271Z,13.88
2023-04-20T09:07:33.928Z,13.99
2023-04-20T09:10:01.512Z,14.48
2023-04-20T09:12:41.844Z,14.44
2023-04-20T09:15:10.619Z,14.73
2023-04-20T09:17:40.990Z,14.83
2023-04-20T09:20:09.491Z,14.79
2023-04-20T09:22:37.950Z,15.13
2023-04-20T09:25:19.214Z,15.24
2023-04-20T09:27:58.171Z,15.45
2023-04-20T09:30:25.496Z,15.63
2023-04-20T09:33:03.236Z,15.61
2023-04-20T09:35:31.352Z,15.87
2023-04-20T09:37:58.404Z,16.21
2023-04-20T09:40:26.497Z,16.76
2023-04-20T09:42:54.946Z,17.00
2023-04-20T09:45:22.881Z,17.59
2023-04-20T09:47:51.189Z,18.11
2023-04-20T09:50:26.649Z,18.26
2023-04-20T09:52:54.577Z,18.16
2023-04-20T09:55:22.022Z,18.34
2023-04-20T09:57:50.605Z,17.57
2023-04-20T10:00:18.135Z,17.55
2023-04-20T10:02:48.287Z,17.15
2023-04-20T10:05:16.869Z,17.10
2023-04-20T10:07:44.412Z,16.83
2023-04-20T10:10:16.571Z,16.82
2023-04-20T10:12:51.598Z,17.15
2023-04-20T10:15:18.743Z,17.05
2023-04-20T10:17:46.315Z,16.46
2023-04-20T10:20:28.183Z,17.20
2023-04-20T10:23:08.071Z,17.02
2023-04-20T10:25:35.428Z,17.14
2023-04-20T10:28:06.226Z,17.10
2023-04-20T10:30:36.156Z,16.93
2023-04-20T10:33:07.518Z,17.44
2023-04-20T10:35:51.136Z,17.74
2023-04-20T10:38:32.247Z,18.15
2023-04-20T10:41:13.151Z,18.26
2023-04-20T10:43:43.359Z,18.34
2023-04-20T10:46:22.021Z,17.99
2023-04-20T10:49:03.838Z,17.53
2023-04-20T10:51:31.540Z,17.56
2023-04-20T10:53:59.228Z,16.85
2023-04-20T10:56:27.232Z,16.87
2023-04-20T10:58:54.631Z,16.87
2023-04-20T11:01:22.413Z,16.90
2023-04-20T11:03:53.704Z,17.26
2023-04-20T11:06:22.797Z,17.35
2023-04-20T11:08:49.820Z,18.03
2023-04-20T11:11:25.619Z,17.73
2023-04-20T11:13:53.392Z,17.93
2023-04-20T11:16:20.518Z,17.74
2023-04-20T11:18:55.295Z,17.64
2023-04-20T11:21:22.762Z,17.40
2023-04-20T11:23:50.640Z,17.71
2023-04-20T11:26:18.145Z,18.27
2023-04-20T11:28:56.183Z,18.24
2023-04-20T11:31:23.865Z,18.35
2023-04-20T11:33:51.069Z,18.37
2023-04-20T11:36:20.117Z,18.69
2023-04-20T11:38:47.400Z,19.17
2023-04-20T11:41:14.630Z,19.54
2023-04-20T11:43:43.435Z,19.66
2023-04-20T11:46:20.648Z,19.38
2023-04-20T11:48:49.439Z,19.47
2023-04-20T11:51:16.616Z,19.91
2023-04-20T11:53:43.586Z,19.82
2023-04-20T11:56:12.393Z,19.51
2023-04-20T11:58:40.159Z,18.84
2023-04-20T12:01:07.263Z,18.45
2023-04-20T12:03:34.266Z,18.18
2023-04-20T12:06:01.650Z,18.07
2023-04-20T12:08:28.718Z,18.00
2023-04-20T12:10:57.344Z,17.59
2023-04-20T12:13:27.457Z,17.34
2023-04-20T12:15:54.648Z,16.60
2023-04-20T12:18:24.805Z,15.84
2023-04-20T12:20:52.089Z,15.47
2023-04-20T12:23:21.570Z,15.76
2023-04-20T12:25:49.403Z,15.77
2023-04-20T12:28:17.708Z,15.78
2023-04-20T12:30:44.960Z,16.09
2023-04-20T12:33:13.363Z,16.27
2023-04-20T12:35:41.172Z,15.92
2023-04-20T12:38:08.210Z,16.01
2023-04-20T12:40:35.645Z,16.40
2023-04-20T12:43:03.057Z,16.62
2023-04-20T12:45:30.182Z,16.40
2023-04-20T12:48:00.402Z,16.46
2023-04-20T12:50:28.544Z,17.18
2023-04-20T12:53:02.366Z,17.59
2023-04-20T12:55:32.556Z,17.79
2023-04-20T12:57:59.675Z,17.64
2023-04-20T13:00:26.800Z,17.53
2023-04-20T13:02:54.510Z,17.66
2023-04-20T13:05:21.808Z,17.86
2023-04-20T13:07:48.843Z,17.67
2023-04-20T13:10:15.993Z,17.77
2023-04-20T13:12:43.128Z,17.88
2023-04-20T13:15:11.356Z,18.04
2023-04-20T13:17:38.758Z,17.69
2023-04-20T13:20:06.551Z,17.48
2023-04-20T13:22:41.115Z,17.29
2023-04-20T13:25:17.798Z,17.15
2023-04-20T13:27:44.752Z,17.27
2023-04-20T13:30:12.554Z,17.34
2023-04-20T13:32:39.560Z,17.18
2023-04-20T13:35:07.514Z,16.97
2023-04-20T13:37:34.575Z,16.41
2023-04-20T13:40:01.735Z,16.36
2023-04-20T13:42:31.826Z,16.19
2023-04-20T13:44:58.767Z,16.18
2023-04-20T13:47:26.289Z,16.34
2023-04-20T13:49:53.353Z,16.30
2023-04-20T13:52:29.946Z,16.26
2023-04-20T13:55:01.930Z,16.10
2023-04-20T13:57:31.716Z,16.17
2023-04-20T14:00:01.632Z,16.50
2023-04-20T14:02:34.402Z,16.49
2023-04-20T14:05:06.246Z,16.57
2023-04-20T14:08:49.496Z,17.17
2023-04-20T14:16:26.328Z,17.21
2023-04-20T14:24:54.255Z,17.13
2023-04-20T14:27:21.576Z,17.19
2023-04-20T14:29:50.902Z,17.19
2023-04-20T14:32:18.835Z,17.26
2023-04-20T14:34:45.963Z,17.21
2023-04-20T14:37:14.173Z,17.39
2023-04-20T14:39:41.450Z,17.36
2023-04-20T14:42:08.529Z,16.86
2023-04-20T14:44:35.650Z,16.71
2023-04-20T14:47:03.509Z,16.65
2023-04-20T14:49:30.498Z,16.89
2023-04-20T14:51:57.418Z,17.09
2023-04-20T14:54:24.510Z,17.03
2023-04-20T14:56:51.967Z,16.95
2023-04-20T14:59:19.417Z,16.46
2023-04-20T15:02:01.212Z,15.59
2023-04-20T15:04:29.640Z,15.28
2023-04-20T15:06:56.799Z,15.41
2023-04-20T15:09:23.920Z,15.45
2023-04-20T15:11:50.985Z,15.48
2023-04-20T15:14:18.262Z,15.48
2023-04-20T15:16:45.582Z,15.42
2023-04-20T15:19:12.548Z,15.27
2023-04-20T15:21:39.876Z,15.18
2023-04-20T15:24:07.490Z,15.17
2023-04-20T15:26:35.343Z,15.16
2023-04-20T15:29:02.425Z,14.98
2023-04-20T15:31:29.535Z,15.04
2023-04-20T15:33:59.144Z,14.95
2023-04-20T15:36:26.476Z,14.91
2023-04-20T15:38:54.575Z,14.94
2023-04-20T15:41:23.269Z,14.96
2023-04-20T15:43:51.323Z,14.86
2023-04-20T15:46:18.859Z,14.74
2023-04-20T15:48:46.012Z,14.52
2023-04-20T15:51:13.096Z,14.62
2023-04-20T15:53:40.307Z,14.72
2023-04-20T15:56:07.747Z,15.00
2023-04-20T15:58:34.802Z,15.00
2023-04-20T16:01:01.827Z,15.04
2023-04-20T16:03:29.123Z,15.15
2023-04-20T16:05:56.292Z,15.14
2023-04-20T16:08:25.829Z,15.18
2023-04-20T16:10:54.896Z,15.22
2023-04-20T16:13:21.806Z,15.08
2023-04-20T16:15:49.503Z,15.04
2023-04-20T16:18:16.768Z,14.46
2023-04-20T16:20:44.079Z,14.87
2023-04-20T16:23:11.236Z,14.90
2023-04-20T16:25:38.775Z,14.76
2023-04-20T16:28:06.112Z,14.89
2023-04-20T16:30:39.029Z,15.52
2023-04-20T16:33:06.309Z,15.84
2023-04-20T16:35:33.347Z,15.55
2023-04-20T16:38:00.966Z,15.99
2023-04-20T16:40:28.575Z,16.40
2023-04-20T16:42:55.552Z,16.23
2023-04-20T16:45:22.667Z,15.99
2023-04-20T16:47:51.437Z,15.68
2023-04-20T16:50:22.039Z,15.46
2023-04-20T16:52:49.427Z,15.29
2023-04-20T16:55:16.531Z,15.05
2023-04-20T16:57:44.620Z,14.85
2023-04-20T17:00:12.972Z,14.70
2023-04-20T17:02:40.572Z,14.58
2023-04-20T17:05:08.285Z,14.46
2023-04-20T17:07:37.050Z,14.39
2023-04-20T17:10:04.831Z,14.30
2023-04-20T17:12:32.543Z,14.22
2023-04-20T17:15:00.913Z,13.91
2023-04-20T17:17:28.652Z,13.99
2023-04-20T17:19:55.879Z,14.09
2023-04-20T17:22:25.806Z,13.84
2023-04-20T17:24:54.196Z,14.04
2023-04-20T17:27:24.115Z,13.91
2023-04-20T17:29:51.762Z,13.94
2023-04-20T17:32:19.047Z,13.99
2023-04-20T17:34:51.393Z,13.90
2023-04-20T17:37:18.800Z,13.93
2023-04-20T17:39:46.110Z,13.88
2023-04-20T17:42:13.473Z,13.87
2023-04-20T17:44:40.609Z,13.90
2023-04-20T17:47:09.730Z,13.79
2023-04-20T17:49:37.168Z,13.73
2023-04-20T17:52:04.370Z,13.83
2023-04-20T17:54:34.010Z,13.44
2023-04-20T17:57:01.566Z,13.86
2023-04-20T17:59:30.740Z,13.78
2023-04-20T18:01:59.455Z,13.86
2023-04-20T18:04:27.130Z,13.86
2023-04-20T18:06:54.526Z,13.84
2023-04-20T18:09:23.254Z,13.72
2023-04-20T18:11:50.336Z,13.70
2023-04-20T18:14:17.768Z,13.75
2023-04-20T18:16:45.077Z,13.81
2023-04-20T18:19:12.109Z,13.76
2023-04-20T18:21:39.026Z,13.23
2023-04-20T18:24:07.328Z,13.56
2023-04-20T18:26:34.454Z,13.65
2023-04-20T18:29:01.436Z,13.70
2023-04-20T18:31:29.349Z,13.65
2023-04-20T18:33:56.452Z,13.56
2023-04-20T18:36:23.439Z,13.55
2023-04-20T18:38:51.485Z,13.62
2023-04-20T18:41:18.558Z,13.60
2023-04-20T18:43:47.114Z,13.53
2023-04-20T18:46:14.562Z,13.49
2023-04-20T18:48:41.884Z,13.44
2023-04-20T18:51:09.163Z,13.40
2023-04-20T18:53:36.456Z,13.29
2023-04-20T18:56:03.869Z,13.17
2023-04-20T18:58:31.871Z,13.35
2023-04-20T19:01:01.184Z,13.08
2023-04-20T19:03:28.397Z,13.31
2023-04-20T19:05:55.370Z,13.32
2023-04-20T19:08:23.098Z,12.90
2023-04-20T19:10:50.680Z,12.91
2023-04-20T19:13:23.854Z,13.24
2023-04-20T19:15:57.716Z,13.32
2023-04-20T19:18:26.918Z,13.31
2023-04-20T19:20:54.425Z,13.38
2023-04-20T19:23:22.211Z,13.41
2023-04-20T19:25:49.327Z,13.40
2023-04-20T19:28:16.443Z,13.34
2023-04-20T19:30:43.788Z,13.31
2023-04-20T19:33:10.963Z,13.24
2023-04-20T19:35:38.251Z,13.18
2023-04-20T19:38:05.195Z,13.13
2023-04-20T19:40:32.333Z,13.14
2023-04-20T19:42:59.249Z,13.18
2023-04-20T19:45:26.474Z,13.11
2023-04-20T19:47:53.470Z,13.09
2023-04-20T19:50:20.668Z,13.00
2023-04-20T19:52:47.662Z,13.09
2023-04-20T19:55:15.253Z,12.84
2023-04-20T19:57:42.218Z,13.19
2023-04-20T20:00:10.290Z,13.14
2023-04-20T20:02:40.483Z,13.08
2023-04-20T20:05:08.735Z,12.96
2023-04-20T20:07:36.400Z,13.00
2023-04-20T20:10:04.679Z,13.01
2023-04-20T20:12:33.768Z,13.04
2023-04-20T20:15:01.131Z,12.96
2023-04-20T20:17:29.563Z,12.92
2023-04-20T20:19:56.526Z,12.96
2023-04-20T20:22:23.749Z,12.90
2023-04-20T20:24:52.200Z,13.06
2023-04-20T20:27:19.470Z,13.04
2023-04-20T20:29:46.813Z,12.87
2023-04-20T20:32:13.832Z,13.04
2023-04-20T20:34:41.413Z,13.08
2023-04-20T20:37:10.519Z,12.99
2023-04-20T20:39:44.626Z,13.01
2023-04-20T20:42:12.548Z,13.10
2023-04-20T20:45:50.012Z,13.14
2023-04-20T20:48:17.398Z,12.87
2023-04-20T20:50:44.664Z,12.97
2023-04-20T20:53:12.270Z,12.95
2023-04-20T20:55:39.197Z,12.98
2023-04-20T20:58:09.145Z,12.88
2023-04-20T21:00:36.496Z,12.92
2023-04-20T21:03:03.655Z,12.92
2023-04-20T21:05:31.890Z,12.82
2023-04-20T21:07:59.885Z,12.91
2023-04-20T21:10:27.088Z,12.90
2023-04-20T21:12:54.102Z,12.93
2023-04-20T21:15:21.286Z,12.83
2023-04-20T21:17:50.914Z,12.71
2023-04-20T21:20:18.703Z,12.72
2023-04-20T21:22:45.725Z,12.65
2023-04-20T21:25:12.977Z,12.55
2023-04-20T21:27:40.005Z,12.49
2023-04-20T21:30:16.127Z,12.39
2023-04-20T21:32:57.726Z,12.20
2023-04-20T21:35:24.792Z,12.24
2023-04-20T21:37:51.835Z,12.04
2023-04-20T21:40:18.901Z,12.07
2023-04-20T21:42:46.011Z,12.04
2023-04-20T21:45:13.018Z,11.88
2023-04-20T21:47:40.279Z,12.01
2023-04-20T21:50:07.464Z,12.00
2023-04-20T21:52:34.837Z,11.96
2023-04-20T21:55:01.759Z,11.79
2023-04-20T21:57:31.187Z,11.85
2023-04-20T21:59:58.518Z,11.65
2023-04-20T22:02:25.816Z,11.87
2023-04-20T22:04:52.933Z,11.79
2023-04-20T22:07:20.975Z,11.70
2023-04-20T22:09:48.044Z,11.70
2023-04-20T22:12:15.133Z,11.51
2023-04-20T22:14:43.023Z,11.60
2023-04-20T22:17:11.825Z,11.50
2023-04-20T22:19:39.046Z,11.59
2023-04-20T22:22:06.099Z,11.56
2023-04-20T22:24:33.429Z,11.51
2023-04-20T22:27:01.418Z,11.57
2023-04-20T22:29:28.834Z,11.67
2023-04-20T22:31:55.896Z,11.67
2023-04-20T22:34:22.773Z,11.78
2023-04-20T22:36:50.008Z,11.51
2023-04-20T22:39:17.229Z,11.50
2023-04-20T22:41:44.490Z,11.66
2023-04-20T22:44:11.419Z,11.58
2023-04-20T22:46:38.839Z,10.90
2023-04-20T22:49:05.767Z,11.50
2023-04-20T22:51:33.362Z,11.39
2023-04-20T22:54:02.897Z,11.46
2023-04-20T22:56:30.490Z,11.35
2023-04-20T22:58:57.627Z,11.33
2023-04-20T23:01:25.155Z,11.28
2023-04-20T23:03:52.452Z,11.28
2023-04-20T23:06:22.046Z,11.23
2023-04-20T23:08:50.670Z,11.25
2023-04-20T23:11:18.869Z,11.13
2023-04-20T23:13:48.535Z,11.16
2023-04-20T23:16:15.536Z,11.15
2023-04-20T23:18:42.524Z,11.11
2023-04-20T23:21:10.806Z,9.54
2023-04-20T23:23:37.705Z,10.99
2023-04-20T23:26:04.854Z,10.93
2023-04-20T23:28:32.069Z,10.91
2023-04-20T23:31:00.028Z,10.87
2023-04-20T23:33:27.102Z,10.73
2023-04-20T23:35:54.303Z,10.74
2023-04-20T23:38:21.339Z,10.62
2023-04-20T23:40:48.376Z,10.57
2023-04-20T23:43:15.368Z,10.59
2023-04-20T23:45:42.524Z,10.61
2023-04-20T23:48:10.666Z,10.53
2023-04-20T23:50:37.836Z,10.52
2023-04-20T23:53:05.740Z,10.53
2023-04-20T23:55:33.158Z,10.58
2023-04-20T23:58:00.191Z,10.51
